createdAt,value
2019-02-16T19:52:27.200Z,3.40
2019-02-16T19:53:27.109Z,6.90
2019-02-16T19:55:21.502Z,10.20
2019-02-16T19:56:21.449Z,9.90
2019-02-16T19:58:16.157Z,9.60
2019-02-16T19:59:15.813Z,11.50
2019-02-16T20:01:10.213Z,9.10
2019-02-16T20:02:10.187Z,8.20
2019-02-16T20:04:04.572Z,8.30
2019-02-16T20:05:04.689Z,17.20
2019-02-16T20:07:03.447Z,15.20
2019-02-16T20:08:03.250Z,7.40
2019-02-16T20:09:57.620Z,8.70
2019-02-16T20:10:57.591Z,13.10
2019-02-16T20:12:52.024Z,7.10
2019-02-16T20:13:52.409Z,10.20
2019-02-16T20:15:46.410Z,13.40
2019-02-16T20:16:46.504Z,9.30
2019-02-16T20:18:41.475Z,11.30
2019-02-16T20:19:43.322Z,11.20
2019-02-16T20:21:37.123Z,7.60
2019-02-16T20:22:36.635Z,10.60
2019-02-16T20:24:31.766Z,13.50
2019-02-16T20:25:30.972Z,14.10
2019-02-16T20:27:26.097Z,13.90
2019-02-16T20:28:25.149Z,12.20
2019-02-16T20:30:20.456Z,10.30
2019-02-16T20:31:20.545Z,8.90
2019-02-16T20:33:15.807Z,17.20
2019-02-16T20:34:14.797Z,10.80
2019-02-16T20:36:09.150Z,10.90
2019-02-16T20:37:09.224Z,15.00
2019-02-16T20:39:03.569Z,14.40
2019-02-16T20:40:03.583Z,14.40
2019-02-16T20:41:56.184Z,13.80
2019-02-16T20:42:57.948Z,13.70
2019-02-16T20:44:51.299Z,10.60
2019-02-16T20:45:51.242Z,11.60
2019-02-16T20:47:46.226Z,10.90
2019-02-16T20:48:46.753Z,21.50
2019-02-16T20:50:40.288Z,35.60
2019-02-16T20:51:42.967Z,25.50
2019-02-16T20:53:34.834Z,9.70
2019-02-16T20:54:36.149Z,13.70
2019-02-16T20:56:29.156Z,17.30
2019-02-16T20:57:29.043Z,22.20
2019-02-16T20:59:24.272Z,23.60
2019-02-16T21:00:23.926Z,15.80
2019-02-16T21:02:18.296Z,7.90
2019-02-16T21:03:18.279Z,14.00
2019-02-16T21:05:12.897Z,10.80
2019-02-16T21:06:12.841Z,13.10
2019-02-16T21:08:07.266Z,9.60
2019-02-16T21:09:07.247Z,17.00
2019-02-16T21:11:01.646Z,15.50
2019-02-16T21:12:01.604Z,10.70
2019-02-16T21:13:56.038Z,9.40
2019-02-16T21:14:56.020Z,10.00
2019-02-16T21:16:51.372Z,16.30
2019-02-16T21:17:50.373Z,15.60
2019-02-16T21:19:44.733Z,25.80
2019-02-16T21:20:44.724Z,23.00
2019-02-16T21:22:39.186Z,16.70
2019-02-16T21:23:39.142Z,26.50
2019-02-16T21:25:33.534Z,9.80
2019-02-16T21:26:37.183Z,13.70
2019-02-16T21:28:27.873Z,17.50
2019-02-16T21:29:27.800Z,12.00
2019-02-16T21:31:22.212Z,9.40
2019-02-16T21:32:22.114Z,10.60
2019-02-16T21:34:17.408Z,8.60
2019-02-16T21:35:17.383Z,10.30
2019-02-16T21:37:11.894Z,13.50
2019-02-16T21:38:11.730Z,12.60
2019-02-16T21:40:06.104Z,12.50
2019-02-16T21:41:06.068Z,11.10
2019-02-16T21:43:00.514Z,8.90
2019-02-16T21:44:00.504Z,12.80
2019-02-16T21:45:54.814Z,15.60
2019-02-16T21:46:54.791Z,17.40
2019-02-16T21:48:49.191Z,7.90
2019-02-16T21:49:49.222Z,7.50
2019-02-16T21:51:47.732Z,32.00
2019-02-16T21:52:47.656Z,28.00
2019-02-16T21:54:42.238Z,17.60
2019-02-16T21:55:42.224Z,15.60
2019-02-16T21:57:36.609Z,14.60
2019-02-16T21:58:36.551Z,7.20
2019-02-16T22:00:30.993Z,34.80
2019-02-16T22:01:30.900Z,33.10
2019-02-16T22:03:25.340Z,29.50
2019-02-16T22:04:25.277Z,31.80
2019-02-16T22:06:19.632Z,53.80
2019-02-16T22:07:19.613Z,30.60
2019-02-16T22:08:19.607Z,22.50
2019-02-16T22:09:19.618Z,22.00
2019-02-16T22:10:19.582Z,17.00
2019-02-16T22:11:19.579Z,44.40
2019-02-16T22:12:19.566Z,32.60
2019-02-16T22:13:19.570Z,26.20
2019-02-16T22:14:19.540Z,67.00
2019-02-16T22:15:19.538Z,6.70
2019-02-16T22:16:19.548Z,8.10
2019-02-16T22:17:19.559Z,30.60
2019-02-16T22:18:19.559Z,30.00
2019-02-16T22:19:19.590Z,22.20
2019-02-16T22:20:19.620Z,20.10
2019-02-16T22:21:19.485Z,22.90
2019-02-16T22:22:19.474Z,20.80
2019-02-16T22:23:19.458Z,16.90
2019-02-16T22:24:19.548Z,17.90
2019-02-16T22:25:21.309Z,10.40
2019-02-16T22:26:19.431Z,8.00
2019-02-16T22:27:19.421Z,12.70
2019-02-16T22:28:30.236Z,11.40
2019-02-16T22:29:19.398Z,20.90
2019-02-16T22:30:19.392Z,19.50
2019-02-16T22:31:19.379Z,20.00
2019-02-16T22:32:19.377Z,110.10
2019-02-16T22:33:19.358Z,27.10
2019-02-16T22:34:19.348Z,14.50
2019-02-16T22:35:19.338Z,17.90
2019-02-16T22:36:19.345Z,17.80
2019-02-16T22:37:19.318Z,25.10
2019-02-16T22:38:19.316Z,18.60
2019-02-16T22:39:19.320Z,21.10
2019-02-16T22:40:19.289Z,25.30
2019-02-16T22:41:19.279Z,62.40
2019-02-16T22:42:19.309Z,46.00
2019-02-16T22:43:19.279Z,23.40
2019-02-16T22:44:19.299Z,28.50
2019-02-16T22:45:19.242Z,30.30
2019-02-16T22:46:19.249Z,66.90
2019-02-16T22:47:19.222Z,36.40
2019-02-16T22:48:19.208Z,30.60
2019-02-16T22:49:20.118Z,40.00
2019-02-16T22:50:19.192Z,50.00
2019-02-16T22:51:19.179Z,69.40
2019-02-16T22:52:19.174Z,44.70
2019-02-16T22:53:19.315Z,36.40
2019-02-16T22:54:19.162Z,22.80
2019-02-16T22:55:19.143Z,18.60
2019-02-16T22:56:20.139Z,28.20
2019-02-16T22:57:19.120Z,24.40
2019-02-16T22:58:28.246Z,18.90
2019-02-16T22:59:19.100Z,21.00
2019-02-16T23:00:19.091Z,19.00
2019-02-16T23:01:19.075Z,28.00
2019-02-16T23:02:19.068Z,26.60
2019-02-16T23:03:19.062Z,20.60
2019-02-16T23:04:19.048Z,17.40
2019-02-16T23:05:19.036Z,8.50
2019-02-16T23:06:19.056Z,13.80
2019-02-16T23:07:19.035Z,19.80
2019-02-16T23:08:19.191Z,32.00
2019-02-16T23:09:19.025Z,32.10
2019-02-16T23:10:19.021Z,31.70
2019-02-16T23:11:18.974Z,75.10
2019-02-16T23:12:18.966Z,52.20
2019-02-16T23:13:18.973Z,32.50
2019-02-16T23:14:18.947Z,32.00
2019-02-16T23:15:18.935Z,69.90
2019-02-16T23:16:18.921Z,67.20
2019-02-16T23:17:19.235Z,46.10
2019-02-16T23:18:18.910Z,158.80
2019-02-16T23:19:18.910Z,85.40
2019-02-16T23:20:18.886Z,120.10
2019-02-16T23:21:18.876Z,127.70
2019-02-16T23:22:18.863Z,140.70
2019-02-16T23:23:18.854Z,59.00
2019-02-16T23:24:18.844Z,62.20
2019-02-16T23:25:18.832Z,47.50
2019-02-16T23:26:18.826Z,29.40
2019-02-16T23:27:18.813Z,32.60
2019-02-16T23:28:18.799Z,32.40
2019-02-16T23:29:18.802Z,29.10
2019-02-16T23:30:18.834Z,15.60
2019-02-16T23:31:18.774Z,31.50
2019-02-16T23:32:18.765Z,23.50
2019-02-16T23:33:18.754Z,20.60
2019-02-16T23:34:18.767Z,22.40
2019-02-16T23:35:18.779Z,31.50
2019-02-16T23:36:18.729Z,81.00
2019-02-16T23:37:18.708Z,39.40
2019-02-16T23:38:18.726Z,34.90
2019-02-16T23:39:18.692Z,24.70
2019-02-16T23:40:18.685Z,27.50
2019-02-16T23:41:18.696Z,44.10
2019-02-16T23:42:18.661Z,22.30
2019-02-16T23:43:18.664Z,36.10
2019-02-16T23:44:18.668Z,33.90
2019-02-16T23:45:18.684Z,28.90
2019-02-16T23:46:18.620Z,38.00
2019-02-16T23:47:18.617Z,42.10
2019-02-16T23:48:18.596Z,72.10
2019-02-16T23:49:18.589Z,61.60
2019-02-16T23:50:18.584Z,49.40
2019-02-16T23:51:18.571Z,26.50
2019-02-16T23:52:18.560Z,14.80
2019-02-16T23:53:18.550Z,25.10
2019-02-16T23:54:18.571Z,21.80
2019-02-16T23:55:18.530Z,19.80
2019-02-16T23:56:18.533Z,17.00
2019-02-16T23:57:18.503Z,15.10
2019-02-16T23:58:18.500Z,16.30
2019-02-16T23:59:18.493Z,22.00
